Time;durP1;ratioP1;P1;durP2;ratioP2;P2;SDS_P1;SDS_P2;PMS_P1;PMS_P2;Temp;Humidity;BMP_temperature;BMP_pressure;BME280_temperature;BME280_humidity;BME280_pressure;Samples;Min_cycle;Max_cycle;Signal;HPM_P1;HPM_P2
2023/10/18 00:01:24;;;;;;;14.15;6.75;;;6.10;99.90;;;;;;5077100;28;20048;-80
2023/10/18 00:03:49;;;;;;;9.63;6.28;;;6.10;99.90;;;;;;5088070;28;20052;-80
2023/10/18 00:06:15;;;;;;;11.45;6.28;;;6.00;99.90;;;;;;5101167;28;20048;-81
2023/10/18 00:08:46;;;;;;;10.05;6.35;;;6.00;99.90;;;;;;5102889;28;20075;-79
2023/10/18 00:11:18;;;;;;;9.60;6.13;;;6.00;99.90;;;;;;5100899;28;20116;-81
2023/10/18 00:13:52;;;;;;;12.35;6.28;;;6.00;99.90;;;;;;5095779;28;20494;-81
2023/10/18 00:16:22;;;;;;;11.95;6.65;;;6.90;99.90;;;;;;5093617;28;20108;-79
2023/10/18 00:18:47;;;;;;;11.50;6.53;;;6.00;99.90;;;;;;5096119;28;20055;-81
2023/10/18 00:21:13;;;;;;;10.70;6.85;;;6.00;99.90;;;;;;5097323;28;20036;-81
2023/10/18 00:23:39;;;;;;;11.27;6.25;;;6.00;99.90;;;;;;5090257;28;20107;-79
2023/10/18 00:26:09;;;;;;;13.32;6.70;;;6.00;99.90;;;;;;5086614;28;20119;-80
2023/10/18 00:28:37;;;;;;;10.38;7.82;;;6.00;99.90;;;;;;5102735;28;20553;-80
2023/10/18 00:31:17;;;;;;;12.25;8.18;;;6.50;99.90;;;;;;5093039;28;20040;-81
2023/10/18 00:33:44;;;;;;;10.88;7.53;;;6.00;99.90;;;;;;5091953;28;20083;-80
2023/10/18 00:36:12;;;;;;;15.05;8.05;;;6.00;99.90;;;;;;5106332;27;20096;-80
2023/10/18 00:38:41;;;;;;;11.73;7.45;;;6.30;99.90;;;;;;5091274;28;20078;-79
2023/10/18 00:41:14;;;;;;;12.88;8.98;;;6.80;99.90;;;;;;5095256;28;20484;-80
2023/10/18 00:43:44;;;;;;;13.90;8.38;;;5.90;99.90;;;;;;5086497;28;20047;-79
2023/10/18 00:46:10;;;;;;;13.35;8.77;;;6.80;99.90;;;;;;5095210;28;20037;-80
2023/10/18 00:48:37;;;;;;;12.52;8.82;;;5.90;99.90;;;;;;5097217;28;20061;-80
2023/10/18 00:51:03;;;;;;;14.80;9.10;;;6.00;99.90;;;;;;5090739;28;20048;-81
2023/10/18 00:53:33;;;;;;;12.75;8.70;;;5.90;99.90;;;;;;5095849;28;20044;-80
2023/10/18 00:55:59;;;;;;;14.25;9.88;;;5.90;99.90;;;;;;5087814;28;20390;-79
2023/10/18 00:58:30;;;;;;;14.27;9.32;;;5.90;99.90;;;;;;5108402;27;20118;-79
2023/10/18 01:00:56;;;;;;;15.55;10.07;;;5.90;99.90;;;;;;5092559;28;20052;-79
2023/10/18 01:03:32;;;;;;;14.27;10.07;;;5.80;99.90;;;;;;5096377;28;20036;-79
2023/10/18 01:06:16;;;;;;;17.08;11.10;;;5.80;99.90;;;;;;5088737;28;20123;-80
2023/10/18 01:08:49;;;;;;;16.15;10.68;;;5.80;99.90;;;;;;5096779;28;20075;-80
2023/10/18 01:11:18;;;;;;;18.33;11.23;;;5.80;99.90;;;;;;5110394;27;20071;-80
2023/10/18 01:13:47;;;;;;;18.55;12.60;;;5.80;99.90;;;;;;5090547;28;20132;-79
2023/10/18 01:16:14;;;;;;;17.45;12.00;;;5.70;99.90;;;;;;5102088;28;20052;-79
2023/10/18 01:18:44;;;;;;;21.05;12.75;;;5.70;99.90;;;;;;5091788;28;20178;-78
2023/10/18 01:21:20;;;;;;;16.30;12.40;;;5.70;99.90;;;;;;5097313;28;20398;-80
2023/10/18 01:23:52;;;;;;;17.17;12.27;;;5.70;99.90;;;;;;5101458;28;20055;-79
2023/10/18 01:26:21;;;;;;;18.98;13.35;;;5.60;99.90;;;;;;5082718;28;20123;-79
2023/10/18 01:28:47;;;;;;;17.10;12.85;;;5.70;99.90;;;;;;5083046;28;20040;-79
2023/10/18 01:31:13;;;;;;;19.30;13.52;;;5.70;99.90;;;;;;5110229;27;20044;-79
2023/10/18 01:33:43;;;;;;;18.70;13.75;;;5.60;99.90;;;;;;5097295;28;20125;-81
2023/10/18 01:36:13;;;;;;;21.75;14.60;;;5.60;99.90;;;;;;5090988;28;20482;-79
2023/10/18 01:38:57;;;;;;;19.50;14.55;;;5.60;99.90;;;;;;5095857;28;20040;-78
2023/10/18 01:41:27;;;;;;;21.88;14.18;;;5.60;99.90;;;;;;5093430;28;20090;-78
2023/10/18 01:44:01;;;;;;;20.20;15.30;;;5.60;99.90;;;;;;5099740;28;20047;-79
2023/10/18 01:46:26;;;;;;;20.00;13.90;;;5.50;99.90;;;;;;5096662;28;20043;-79
2023/10/18 01:48:52;;;;;;;23.23;15.48;;;5.50;99.90;;;;;;5079060;28;20032;-78
2023/10/18 01:51:21;;;;;;;19.75;14.70;;;5.50;99.90;;;;;;5088218;28;20036;-80
2023/10/18 01:53:47;;;;;;;24.15;15.68;;;5.50;99.90;;;;;;5066056;28;20340;-80
2023/10/18 01:56:14;;;;;;;20.00;15.20;;;5.60;99.90;;;;;;5091113;28;20056;-79
2023/10/18 01:58:39;;;;;;;22.63;15.07;;;5.60;99.90;;;;;;5098252;28;20428;-80
2023/10/18 02:01:10;;;;;;;23.80;15.48;;;5.50;99.90;;;;;;5084032;28;20056;-79
2023/10/18 02:03:39;;;;;;;20.73;15.10;;;5.50;99.90;;;;;;5099901;28;20093;-79
2023/10/18 02:06:06;;;;;;;;;;;5.50;99.90;;;;;;5082427;28;20036;-79
2023/10/18 02:08:35;;;;;;;20.73;15.25;;;5.50;99.90;;;;;;5088192;28;19963;-78
2023/10/18 02:11:07;;;;;;;19.00;15.18;;;5.50;99.90;;;;;;5088244;28;20092;-78
2023/10/18 02:13:33;;;;;;;20.70;14.70;;;5.60;99.90;;;;;;5084206;28;20117;-79
2023/10/18 02:15:59;;;;;;;22.00;15.05;;;5.50;99.90;;;;;;5091448;28;20044;-79
2023/10/18 02:18:26;;;;;;;20.02;14.95;;;5.50;99.90;;;;;;5100514;28;20490;-78
2023/10/18 02:20:52;;;;;;;19.13;14.02;;;5.40;99.90;;;;;;5083665;28;20044;-78
2023/10/18 02:23:32;;;;;;;18.90;14.27;;;5.40;99.90;;;;;;5104302;28;20044;-77
2023/10/18 02:25:58;;;;;;;18.33;13.48;;;5.40;99.90;;;;;;5094506;28;20040;-77
2023/10/18 02:28:24;;;;;;;21.17;15.07;;;5.40;99.90;;;;;;5113331;28;20103;-79
2023/10/18 02:31:13;;;;;;;18.98;13.95;;;5.40;99.90;;;;;;5115513;28;20040;-77
2023/10/18 02:33:38;;;;;;;18.83;14.27;;;5.40;99.90;;;;;;5131704;28;20059;-78
2023/10/18 02:36:40;;;;;;;20.38;14.60;;;5.40;99.90;;;;;;5124877;28;20105;-78
2023/10/18 02:39:00;;;;;;;20.17;14.02;;;5.40;99.90;;;;;;5114652;28;20059;-79
2023/10/18 02:41:29;;;;;;;20.25;14.50;;;5.30;99.90;;;;;;5113148;28;20048;-79
2023/10/18 02:43:55;;;;;;;18.60;13.98;;;5.40;99.90;;;;;;5105638;28;20089;-78
2023/10/18 02:46:24;;;;;;;18.70;13.80;;;5.30;99.90;;;;;;5112432;28;20040;-79
2023/10/18 02:48:51;;;;;;;17.52;13.27;;;5.30;99.90;;;;;;5100840;28;20051;-79
2023/10/18 02:51:28;;;;;;;19.35;12.25;;;5.30;99.90;;;;;;5068412;28;20509;-79
2023/10/18 02:54:10;;;;;;;16.33;13.05;;;5.30;99.90;;;;;;5095689;28;20376;-79
2023/10/18 02:56:37;;;;;;;19.10;13.98;;;5.30;99.90;;;;;;5099376;28;20051;-79
2023/10/18 02:59:13;;;;;;;17.02;13.38;;;5.30;99.90;;;;;;5086671;28;20062;-78
2023/10/18 03:01:44;;;;;;;17.05;13.45;;;5.90;99.90;;;;;;5098701;28;20053;-80
2023/10/18 03:04:14;;;;;;;16.65;12.02;;;5.20;99.90;;;;;;5105917;27;20040;-79
2023/10/18 03:06:40;;;;;;;17.10;13.07;;;5.20;99.90;;;;;;5111125;28;20043;-79
2023/10/18 03:09:18;;;;;;;20.17;13.00;;;5.30;99.90;;;;;;5106456;28;20138;-79
2023/10/18 03:11:47;;;;;;;15.57;12.50;;;5.20;99.90;;;;;;5092779;28;20115;-79
2023/10/18 03:14:13;;;;;;;18.75;12.93;;;5.20;99.90;;;;;;5094586;28;20134;-79
2023/10/18 03:16:39;;;;;;;19.50;13.57;;;5.20;99.90;;;;;;5093311;28;20066;-79
2023/10/18 03:19:12;;;;;;;15.65;12.75;;;5.20;99.90;;;;;;5097182;28;20465;-78
2023/10/18 03:21:41;;;;;;;16.50;12.73;;;5.20;99.90;;;;;;5090423;28;20040;-78
2023/10/18 03:24:08;;;;;;;14.98;11.85;;;6.10;99.90;;;;;;5084277;28;20049;-78
2023/10/18 03:26:37;;;;;;;18.60;12.85;;;5.20;99.90;;;;;;5092214;28;20498;-79
2023/10/18 03:29:06;;;;;;;21.65;13.15;;;5.10;99.90;;;;;;5090986;28;20040;-79
2023/10/18 03:31:36;;;;;;;17.23;12.60;;;5.30;99.90;;;;;;5098841;28;20067;-80
2023/10/18 03:34:02;;;;;;;20.00;13.30;;;5.20;99.90;;;;;;5092349;28;20040;-79
2023/10/18 03:36:48;;;;;;;18.80;13.05;;;5.10;99.90;;;;;;5080739;28;20062;-78
2023/10/18 03:39:19;;;;;;;16.50;13.15;;;5.10;99.90;;;;;;5091831;28;20044;-77
2023/10/18 03:41:53;;;;;;;19.98;13.73;;;5.10;99.90;;;;;;5086603;28;20398;-78
2023/10/18 03:44:24;;;;;;;18.23;12.48;;;5.10;99.90;;;;;;5091377;28;20378;-80
2023/10/18 03:46:51;;;;;;;19.52;13.95;;;5.10;99.90;;;;;;5097086;28;20047;-78
2023/10/18 03:51:56;;;;;;;19.83;14.00;;;5.10;99.90;;;;;;5109106;27;20056;-79
2023/10/18 03:54:27;;;;;;;19.05;13.95;;;5.10;99.90;;;;;;5096788;28;20146;-77
2023/10/18 03:56:54;;;;;;;17.35;13.63;;;5.10;99.90;;;;;;5104672;28;20056;-79
2023/10/18 03:59:21;;;;;;;19.20;14.50;;;5.10;99.90;;;;;;5090840;28;20059;-80
2023/10/18 04:04:40;;;;;;;20.17;13.32;;;5.10;99.90;;;;;;5098918;28;20075;-79
2023/10/18 04:07:12;;;;;;;19.27;14.75;;;5.00;99.90;;;;;;5093452;28;20036;-79
2023/10/18 04:12:29;;;;;;;19.63;15.57;;;5.10;99.90;;;;;;5098087;28;20410;-77
2023/10/18 04:15:00;;;;;;;20.50;16.70;;;5.40;99.90;;;;;;5088314;28;20066;-78
2023/10/18 04:17:36;;;;;;;22.80;16.05;;;5.00;99.90;;;;;;5084429;28;20074;-77
2023/10/18 04:20:24;;;;;;;23.33;15.93;;;5.00;99.90;;;;;;5084177;28;20079;-79
2023/10/18 04:22:53;;;;;;;27.88;17.13;;;5.00;99.90;;;;;;5095280;28;20076;-79
2023/10/18 04:25:30;;;;;;;23.40;17.70;;;5.00;99.90;;;;;;5102606;27;20060;-79
2023/10/18 04:27:59;;;;;;;22.55;17.80;;;5.00;99.90;;;;;;5088388;28;20048;-77
2023/10/18 04:30:26;;;;;;;27.50;19.45;;;5.00;99.90;;;;;;5086569;28;20100;-78
2023/10/18 04:32:59;;;;;;;24.15;17.77;;;5.00;99.90;;;;;;5091086;28;20086;-79
2023/10/18 04:35:36;;;;;;;26.67;19.52;;;5.00;99.90;;;;;;5093049;28;20048;-78
2023/10/18 04:38:20;;;;;;;28.08;19.70;;;4.90;99.90;;;;;;5086252;28;20075;-79
2023/10/18 04:41:04;;;;;;;24.33;18.70;;;4.90;99.90;;;;;;5087170;28;20036;-79
2023/10/18 04:43:42;;;;;;;30.00;19.80;;;4.90;99.90;;;;;;5090336;28;20033;-79
2023/10/18 04:46:14;;;;;;;22.85;17.05;;;4.90;99.90;;;;;;5092588;28;20072;-78
2023/10/18 04:51:29;;;;;;;25.25;20.08;;;4.90;99.90;;;;;;5082331;28;20109;-79
2023/10/18 04:53:57;;;;;;;23.98;18.10;;;4.90;99.90;;;;;;5107066;27;20053;-80
2023/10/18 04:56:29;;;;;;;22.98;18.80;;;4.90;99.90;;;;;;5090046;28;20037;-79
2023/10/18 04:58:59;;;;;;;26.60;18.98;;;4.90;99.90;;;;;;5089729;28;20554;-79
2023/10/18 05:01:33;;;;;;;28.75;19.73;;;4.90;99.90;;;;;;5091069;28;20059;-79
2023/10/18 05:04:03;;;;;;;26.35;20.10;;;4.90;99.90;;;;;;5108580;28;20099;-80
2023/10/18 05:06:34;;;;;;;24.08;19.52;;;4.90;99.90;;;;;;5099523;28;20032;-79
2023/10/18 05:09:05;;;;;;;29.48;21.30;;;4.90;99.90;;;;;;5096186;28;20040;-79
2023/10/18 05:11:39;;;;;;;25.80;19.33;;;4.90;99.90;;;;;;5105973;28;20059;-78
2023/10/18 05:14:14;;;;;;;28.73;21.33;;;4.90;99.90;;;;;;5125164;28;20040;-78
2023/10/18 05:16:40;;;;;;;29.85;23.52;;;4.90;99.90;;;;;;5103933;28;20044;-77
2023/10/18 05:19:06;;;;;;;29.13;21.63;;;4.80;99.90;;;;;;5100866;28;20045;-78
2023/10/18 05:21:31;;;;;;;31.13;23.63;;;4.80;99.90;;;;;;5081420;28;20090;-78
2023/10/18 05:23:57;;;;;;;28.50;22.33;;;4.90;99.90;;;;;;5100033;28;20040;-78
2023/10/18 05:26:24;;;;;;;33.97;23.02;;;4.80;99.90;;;;;;5108429;28;20036;-78
2023/10/18 05:28:52;;;;;;;31.63;22.88;;;4.80;99.90;;;;;;5091358;28;20083;-78
2023/10/18 05:34:04;;;;;;;29.08;23.30;;;4.90;99.90;;;;;;5092327;28;20497;-79
2023/10/18 05:36:54;;;;;;;26.15;20.13;;;4.80;99.90;;;;;;5084259;28;20024;-78
2023/10/18 05:41:59;;;;;;;35.08;22.85;;;4.90;99.90;;;;;;5097468;28;19928;-79
2023/10/18 05:44:27;;;;;;;34.30;23.65;;;4.80;99.90;;;;;;5093679;28;20068;-79
2023/10/18 05:46:55;;;;;;;30.20;22.85;;;4.90;99.90;;;;;;5102785;28;20048;-78
2023/10/18 05:49:23;;;;;;;30.95;23.52;;;6.10;99.90;;;;;;5098487;28;20440;-79
2023/10/18 05:51:51;;;;;;;;;;;4.90;99.90;;;;;;5098039;28;20346;-78
2023/10/18 05:54:19;;;;;;;31.23;23.42;;;4.90;99.90;;;;;;5089060;28;20366;-79
2023/10/18 05:56:49;;;;;;;33.88;22.52;;;4.90;99.90;;;;;;5103258;28;20108;-79
2023/10/18 05:59:27;;;;;;;30.88;23.42;;;4.90;99.90;;;;;;5091876;28;20051;-80
2023/10/18 06:01:57;;;;;;;30.30;22.85;;;4.90;99.90;;;;;;5106099;28;20060;-77
2023/10/18 06:04:37;;;;;;;30.10;24.42;;;4.90;99.90;;;;;;5081519;28;20103;-79
2023/10/18 06:07:13;;;;;;;30.77;23.23;;;4.90;99.90;;;;;;5092733;28;20063;-79
2023/10/18 06:12:24;;;;;;;31.52;23.88;;;4.90;99.90;;;;;;5095858;28;20117;-79
2023/10/18 06:14:53;;;;;;;32.42;24.30;;;4.90;99.90;;;;;;5098157;28;20058;-77
2023/10/18 06:17:25;;;;;;;29.40;23.67;;;4.90;99.90;;;;;;5118105;28;20046;-79
2023/10/18 06:19:56;;;;;;;31.75;23.23;;;5.90;99.90;;;;;;5104110;28;20055;-79
2023/10/18 06:22:43;;;;;;;31.42;22.80;;;5.10;99.90;;;;;;5093801;28;20119;-78
2023/10/18 06:25:09;;;;;;;28.10;22.25;;;5.00;99.90;;;;;;5094238;28;20114;-79
2023/10/18 06:27:41;;;;;;;32.58;23.85;;;4.90;99.90;;;;;;5098334;28;20048;-78
2023/10/18 06:30:15;;;;;;;32.72;25.05;;;4.90;99.90;;;;;;5083412;28;20040;-77
2023/10/18 06:32:43;;;;;;;31.42;23.90;;;4.90;99.90;;;;;;5097576;28;20444;-77
2023/10/18 06:35:14;;;;;;;32.53;24.23;;;4.90;99.90;;;;;;5116750;28;20086;-77
2023/10/18 06:37:43;;;;;;;31.15;23.83;;;4.90;99.90;;;;;;5095002;28;20811;-79
2023/10/18 06:40:22;;;;;;;;;;;5.00;99.90;;;;;;5101091;28;20055;-77
2023/10/18 06:42:48;;;;;;;31.98;23.88;;;5.00;99.90;;;;;;5068523;28;19925;-79
2023/10/18 06:45:25;;;;;;;31.63;24.05;;;4.90;99.90;;;;;;5087388;28;20053;-80
2023/10/18 06:47:54;;;;;;;30.85;24.05;;;4.90;99.90;;;;;;5094374;28;20044;-78
2023/10/18 06:50:26;;;;;;;29.70;24.25;;;5.00;99.90;;;;;;5125228;28;20405;-80
2023/10/18 06:52:55;;;;;;;34.25;24.77;;;5.90;99.90;;;;;;5091589;28;20075;-79
2023/10/18 06:55:44;;;;;;;32.35;24.77;;;5.10;99.90;;;;;;5081104;28;20135;-78
2023/10/18 06:58:15;;;;;;;33.90;23.58;;;5.10;99.90;;;;;;5097248;28;20036;-78
2023/10/18 07:00:46;;;;;;;33.55;24.20;;;5.80;99.90;;;;;;5101112;28;20063;-78
2023/10/18 07:03:16;;;;;;;30.83;23.58;;;5.10;99.90;;;;;;5118199;28;20048;-78
2023/10/18 07:05:55;;;;;;;29.65;23.35;;;5.10;99.90;;;;;;5090608;28;20502;-77
2023/10/18 07:08:32;;;;;;;30.80;23.57;;;5.20;99.90;;;;;;5084934;28;20056;-79
2023/10/18 07:11:01;;;;;;;32.70;23.42;;;5.20;99.90;;;;;;5092216;28;20047;-80
2023/10/18 07:13:46;;;;;;;30.73;22.75;;;5.30;99.90;;;;;;5105678;28;20043;-79
2023/10/18 07:16:16;;;;;;;30.00;23.00;;;5.30;99.90;;;;;;5100119;28;20020;-80
2023/10/18 07:18:45;;;;;;;30.27;22.58;;;5.30;99.90;;;;;;5105979;28;20107;-79
2023/10/18 07:21:18;;;;;;;31.33;22.48;;;5.40;99.90;;;;;;5071804;28;20043;-79
2023/10/18 07:23:53;;;;;;;29.90;23.48;;;5.50;99.90;;;;;;5092280;28;20104;-80
2023/10/18 07:26:21;;;;;;;31.67;23.05;;;5.50;99.90;;;;;;5101767;28;20043;-80
2023/10/18 07:28:49;;;;;;;29.85;22.35;;;5.60;99.90;;;;;;5077183;28;20502;-79
2023/10/18 07:31:17;;;;;;;35.38;23.13;;;5.70;99.90;;;;;;5095050;28;20059;-80
2023/10/18 07:33:44;;;;;;;30.15;21.13;;;5.80;99.90;;;;;;5094227;28;20129;-78
2023/10/18 07:36:12;;;;;;;27.73;21.17;;;5.80;99.90;;;;;;5098380;28;20107;-78
2023/10/18 07:38:47;;;;;;;28.95;21.48;;;5.90;99.90;;;;;;5086139;28;20075;-80
2023/10/18 07:41:18;;;;;;;31.80;21.30;;;6.00;99.90;;;;;;5101470;28;20040;-81
2023/10/18 07:43:44;;;;;;;30.17;20.90;;;6.00;99.90;;;;;;5085594;28;20052;-78
2023/10/18 07:46:16;;;;;;;34.20;21.73;;;6.00;99.90;;;;;;5063760;28;20048;-78
2023/10/18 07:48:46;;;;;;;30.85;21.15;;;6.10;99.90;;;;;;5102232;28;20448;-78
2023/10/18 07:51:24;;;;;;;30.63;20.30;;;6.60;99.90;;;;;;5098547;28;20098;-79
2023/10/18 07:53:54;;;;;;;26.40;20.52;;;6.20;99.90;;;;;;5094267;28;20044;-79
2023/10/18 07:56:29;;;;;;;24.15;19.75;;;6.20;99.90;;;;;;5083857;28;20036;-79
2023/10/18 08:01:47;;;;;;;29.40;20.27;;;6.60;99.90;;;;;;5061986;28;1110854;-80
2023/10/18 08:04:17;;;;;;;25.75;20.27;;;6.40;99.90;;;;;;5086359;28;20498;-80
2023/10/18 08:06:48;;;;;;;28.27;20.17;;;6.50;99.90;;;;;;5089442;28;20051;-78
2023/10/18 08:09:20;;;;;;;25.35;19.30;;;6.50;99.90;;;;;;5087622;28;20048;-78
2023/10/18 08:11:47;;;;;;;25.92;20.38;;;6.60;99.90;;;;;;5099454;28;20389;-77
2023/10/18 08:14:27;;;;;;;27.80;20.00;;;6.70;99.90;;;;;;5099265;28;20063;-79
2023/10/18 08:16:55;;;;;;;25.63;19.42;;;6.70;99.90;;;;;;5093614;28;20489;-78
2023/10/18 08:19:25;;;;;;;26.65;18.75;;;6.70;99.90;;;;;;5082723;28;20101;-78
2023/10/18 08:22:27;;;;;;;26.23;19.48;;;6.80;99.90;;;;;;5084471;28;20083;-78
2023/10/18 08:24:49;;;;;;;26.17;18.63;;;6.80;99.90;;;;;;5095137;28;20052;-80
2023/10/18 08:27:16;;;;;;;26.20;19.42;;;6.90;99.90;;;;;;5101866;28;20142;-79
2023/10/18 08:29:52;;;;;;;26.25;18.58;;;6.90;99.90;;;;;;5099909;28;20055;-79
2023/10/18 08:32:18;;;;;;;24.13;18.80;;;7.00;99.90;;;;;;5102193;28;20051;-79
2023/10/18 08:34:45;;;;;;;22.48;18.10;;;7.10;99.90;;;;;;5088783;28;20062;-79
2023/10/18 08:37:15;;;;;;;24.73;18.10;;;7.10;99.90;;;;;;5084265;28;20040;-78
2023/10/18 08:39:52;;;;;;;22.55;18.02;;;7.20;99.90;;;;;;5097181;28;20072;-79
2023/10/18 08:42:24;;;;;;;22.30;17.13;;;7.20;99.90;;;;;;5080487;28;20113;-79
2023/10/18 08:45:04;;;;;;;21.88;17.60;;;7.20;99.90;;;;;;5103873;28;20405;-77
2023/10/18 08:47:34;;;;;;;22.25;18.48;;;7.30;99.90;;;;;;5095062;28;20124;-79
2023/10/18 08:50:00;;;;;;;24.35;18.90;;;7.30;99.90;;;;;;5082799;28;20048;-79
2023/10/18 08:52:34;;;;;;;24.80;17.50;;;7.40;99.90;;;;;;5082286;28;20044;-77
2023/10/18 08:55:19;;;;;;;31.65;18.52;;;7.40;99.90;;;;;;5089356;28;20048;-80
2023/10/18 08:57:46;;;;;;;23.90;16.92;;;7.50;99.90;;;;;;5087791;28;20072;-77
2023/10/18 09:02:46;;;;;;;21.83;16.60;;;7.60;99.90;;;;;;5096686;28;20086;-79
2023/10/18 09:05:13;;;;;;;27.08;16.00;;;7.70;99.90;;;;;;5098873;28;20047;-77
2023/10/18 09:07:42;;;;;;;23.70;16.58;;;7.80;99.90;;;;;;5102825;28;20074;-80
2023/10/18 09:10:13;;;;;;;19.65;14.85;;;7.90;99.90;;;;;;5091183;28;20043;-79
2023/10/18 09:17:56;;;;;;;17.95;14.30;;;8.30;99.90;;;;;;5098400;28;20127;-79
2023/10/18 09:20:26;;;;;;;18.25;12.88;;;8.20;99.90;;;;;;5093305;28;20549;-78
2023/10/18 09:22:52;;;;;;;19.10;13.20;;;8.20;99.90;;;;;;5098958;28;20039;-79
2023/10/18 09:25:23;;;;;;;17.88;13.48;;;8.30;99.90;;;;;;5084079;28;20067;-79
2023/10/18 09:27:52;;;;;;;18.40;14.10;;;8.40;99.90;;;;;;5082497;28;20048;-79
2023/10/18 09:30:20;;;;;;;20.08;14.00;;;8.40;99.90;;;;;;5101922;28;20033;-79
2023/10/18 09:32:47;;;;;;;17.77;13.02;;;8.50;99.90;;;;;;5097661;28;20047;-78
2023/10/18 09:35:13;;;;;;;17.17;13.55;;;8.60;99.90;;;;;;5092680;28;20044;-81
2023/10/18 09:37:39;;;;;;;18.17;13.30;;;8.60;99.90;;;;;;5095535;28;20530;-79
2023/10/18 09:40:06;;;;;;;17.65;13.77;;;9.10;99.90;;;;;;5101365;28;20071;-78
2023/10/18 09:42:32;;;;;;;15.73;12.75;;;8.70;99.90;;;;;;5095398;28;20044;-79
2023/10/18 09:44:59;;;;;;;18.52;12.85;;;8.80;99.90;;;;;;5069589;28;20048;-77
2023/10/18 09:47:26;;;;;;;18.52;13.18;;;8.90;99.90;;;;;;5083439;28;20060;-80
2023/10/18 09:50:05;;;;;;;17.15;13.63;;;9.00;99.90;;;;;;5079015;28;20051;-80
2023/10/18 09:52:47;;;;;;;21.48;13.90;;;9.00;99.90;;;;;;5084150;28;20052;-80
2023/10/18 09:55:17;;;;;;;19.02;13.68;;;9.10;99.90;;;;;;5098267;28;20071;-79
2023/10/18 09:57:49;;;;;;;17.80;13.25;;;9.20;99.90;;;;;;5084119;28;20044;-80
2023/10/18 10:00:16;;;;;;;15.68;12.30;;;9.70;99.90;;;;;;5095004;28;20469;-80
2023/10/18 10:02:52;;;;;;;15.13;12.87;;;9.40;99.90;;;;;;5093728;28;20058;-78
2023/10/18 10:05:26;;;;;;;17.77;12.73;;;10.70;99.90;;;;;;5101037;28;20045;-79
2023/10/18 10:07:56;;;;;;;15.48;12.30;;;9.60;99.90;;;;;;5086960;28;20063;-79
2023/10/18 10:10:43;;;;;;;16.88;12.27;;;9.70;99.90;;;;;;5096667;28;20036;-79
2023/10/18 10:13:13;;;;;;;16.25;11.82;;;9.80;99.90;;;;;;5102246;28;20055;-80
2023/10/18 10:15:40;;;;;;;15.02;12.50;;;9.80;99.90;;;;;;5084523;28;20049;-79
2023/10/18 10:18:11;;;;;;;14.23;11.65;;;9.80;99.90;;;;;;5076770;28;20044;-80
2023/10/18 10:20:40;;;;;;;13.45;11.18;;;9.90;99.90;;;;;;5087055;28;20048;-79
2023/10/18 10:23:15;;;;;;;12.63;11.00;;;10.10;99.90;;;;;;5086977;28;20046;-80
2023/10/18 10:25:57;;;;;;;13.02;11.45;;;10.10;99.90;;;;;;5092993;28;20041;-79
2023/10/18 10:29:33;;;;;;;13.57;10.82;;;10.00;99.90;;;;;;5090559;28;20437;-79
2023/10/18 10:31:56;;;;;;;14.85;10.80;;;10.10;99.90;;;;;;5099037;28;20067;-79
2023/10/18 10:34:28;;;;;;;13.95;10.00;;;10.30;99.90;;;;;;5086804;28;20075;-79
2023/10/18 10:37:05;;;;;;;12.60;9.95;;;10.40;99.90;;;;;;5091638;28;20104;-79
2023/10/18 10:39:32;;;;;;;13.35;10.02;;;10.50;99.90;;;;;;5083492;28;20040;-78
2023/10/18 10:42:08;;;;;;;11.80;8.85;;;10.60;99.90;;;;;;5097582;28;20044;-78
2023/10/18 10:44:54;;;;;;;16.05;8.93;;;10.70;99.90;;;;;;5102133;28;20052;-79
2023/10/18 10:47:30;;;;;;;12.32;9.10;;;10.70;99.90;;;;;;5118969;28;20053;-79
2023/10/18 10:50:00;;;;;;;11.02;8.88;;;10.70;99.90;;;;;;5117150;28;20047;-78
2023/10/18 10:52:29;;;;;;;11.85;8.82;;;10.70;99.90;;;;;;5102235;28;20048;-81
2023/10/18 10:55:19;;;;;;;12.32;9.90;;;10.80;99.90;;;;;;5116957;28;20048;-78
2023/10/18 10:57:46;;;;;;;;;;;11.00;99.90;;;;;;5095873;28;20066;-78
2023/10/18 11:03:53;;;;;;;14.93;8.40;;;11.10;99.90;;;;;;5092593;28;20082;-79
2023/10/18 11:06:23;;;;;;;16.45;8.90;;;11.20;99.90;;;;;;5109015;28;20075;-80
2023/10/18 11:08:56;;;;;;;17.52;9.13;;;11.20;99.90;;;;;;5082146;28;20160;-81
2023/10/18 11:11:22;;;;;;;14.45;9.45;;;11.20;99.90;;;;;;5085739;28;20437;-80
2023/10/18 11:13:51;;;;;;;15.88;8.63;;;11.30;99.90;;;;;;5093862;28;20039;-79
2023/10/18 11:16:20;;;;;;;14.98;9.50;;;12.70;99.90;;;;;;5095644;28;20043;-81
2023/10/18 11:18:52;;;;;;;18.58;9.05;;;11.20;99.90;;;;;;5088362;28;20047;-81
2023/10/18 11:21:21;;;;;;;14.20;9.13;;;11.20;99.90;;;;;;5101010;28;20095;-79
2023/10/18 11:23:57;;;;;;;12.73;9.32;;;11.30;99.90;;;;;;5083834;28;20066;-79
2023/10/18 11:26:25;;;;;;;11.43;8.35;;;11.20;99.90;;;;;;5087484;28;20214;-80
2023/10/18 11:28:59;;;;;;;11.43;8.48;;;11.10;99.90;;;;;;5100192;28;20096;-80
2023/10/18 11:31:26;;;;;;;15.60;8.70;;;11.00;99.90;;;;;;5091314;28;20108;-82
2023/10/18 11:34:07;;;;;;;12.18;9.02;;;11.00;99.90;;;;;;5101763;28;20040;-79
2023/10/18 11:36:39;;;;;;;13.60;8.70;;;11.00;99.90;;;;;;5095476;28;20040;-79
2023/10/18 11:41:44;;;;;;;13.25;9.20;;;10.90;99.90;;;;;;5103404;28;20047;-80
2023/10/18 11:44:20;;;;;;;12.95;9.25;;;10.90;99.90;;;;;;5098365;28;20088;-79
2023/10/18 11:46:56;;;;;;;13.80;9.25;;;10.80;99.90;;;;;;5109602;28;20044;-81
2023/10/18 11:49:32;;;;;;;12.23;9.50;;;10.80;99.90;;;;;;5105092;28;20035;-80
2023/10/18 11:51:58;;;;;;;11.32;8.75;;;10.90;99.90;;;;;;5089624;28;20105;-82
2023/10/18 11:54:28;;;;;;;12.48;8.85;;;10.80;99.90;;;;;;5103559;28;20437;-81
2023/10/18 11:56:56;;;;;;;11.80;8.13;;;10.80;99.90;;;;;;5109365;27;20121;-79
2023/10/18 11:59:28;;;;;;;11.68;8.85;;;10.80;99.90;;;;;;5085918;28;20051;-82
2023/10/18 12:02:06;;;;;;;16.33;9.57;;;10.80;99.90;;;;;;5113231;28;20054;-80
2023/10/18 12:04:38;;;;;;;12.13;8.43;;;10.80;99.90;;;;;;5091423;28;20048;-81
2023/10/18 12:07:04;;;;;;;11.98;8.35;;;10.80;99.90;;;;;;5096268;28;20126;-79
2023/10/18 12:09:31;;;;;;;13.45;8.98;;;10.90;99.90;;;;;;5093172;28;20550;-80
2023/10/18 12:11:57;;;;;;;13.15;8.27;;;10.80;99.90;;;;;;5092720;28;20043;-79
2023/10/18 12:14:23;;;;;;;12.45;8.48;;;10.80;99.90;;;;;;5091928;28;20048;-82
2023/10/18 12:16:55;;;;;;;10.23;8.60;;;10.80;99.90;;;;;;5078123;28;20044;-79
2023/10/18 12:19:21;;;;;;;10.88;8.40;;;10.80;99.90;;;;;;5064208;28;20392;-80
2023/10/18 12:21:54;;;;;;;17.77;8.68;;;10.80;99.90;;;;;;5114384;28;20064;-82
2023/10/18 12:24:21;;;;;;;13.05;8.40;;;10.80;99.90;;;;;;5100891;28;20071;-80
2023/10/18 12:26:53;;;;;;;14.65;9.25;;;11.00;99.90;;;;;;5100329;28;20482;-81
2023/10/18 12:29:29;;;;;;;15.32;8.50;;;11.00;99.90;;;;;;5092510;28;20417;-83
2023/10/18 12:32:07;;;;;;;11.18;8.82;;;11.00;99.90;;;;;;5091065;28;20045;-82
2023/10/18 12:34:35;;;;;;;;;;;11.00;99.90;;;;;;5083962;28;20055;-81
2023/10/18 12:37:01;;;;;;;12.48;9.50;;;11.00;99.90;;;;;;5087623;28;20330;-80
2023/10/18 12:39:34;;;;;;;12.00;8.68;;;11.10;99.90;;;;;;5097701;28;20040;-82
2023/10/18 12:42:04;;;;;;;13.95;9.25;;;12.10;99.90;;;;;;5095273;28;20040;-84
2023/10/18 12:44:31;;;;;;;13.80;9.45;;;12.00;99.90;;;;;;5087649;28;20379;-79
2023/10/18 12:47:09;;;;;;;10.55;8.57;;;11.60;99.90;;;;;;5096159;28;20122;-81
2023/10/18 12:49:44;;;;;;;11.60;8.57;;;10.40;99.90;;;;;;5113362;27;20504;-79
2023/10/18 12:54:57;;;;;;;11.45;8.65;;;11.10;99.90;;;;;;5094478;28;20049;-82
2023/10/18 12:57:32;;;;;;;14.50;8.77;;;11.60;99.90;;;;;;5103609;28;20102;-81
2023/10/18 13:05:12;;;;;;;11.32;9.00;;;10.70;99.90;;;;;;5096703;28;20443;-82
2023/10/18 13:07:43;;;;;;;16.45;9.38;;;11.10;99.90;;;;;;5106315;28;20508;-81
2023/10/18 13:10:12;;;;;;;11.80;8.57;;;11.00;99.90;;;;;;5081562;28;20127;-80
2023/10/18 13:12:51;;;;;;;12.18;9.15;;;11.00;99.90;;;;;;5093679;28;20094;-79
2023/10/18 13:15:17;;;;;;;13.18;8.82;;;11.00;99.90;;;;;;5085428;28;20429;-81
2023/10/18 13:17:43;;;;;;;13.52;8.55;;;10.90;99.90;;;;;;5086749;28;20066;-80
2023/10/18 13:20:24;;;;;;;11.15;8.85;;;10.90;99.90;;;;;;5085838;28;20518;-80
2023/10/18 13:22:55;;;;;;;14.55;8.95;;;10.90;99.90;;;;;;5114915;28;20044;-82
2023/10/18 13:25:25;;;;;;;14.73;8.85;;;10.90;99.90;;;;;;5100332;28;20070;-81
2023/10/18 13:27:54;;;;;;;11.52;9.38;;;11.00;99.90;;;;;;5087879;28;20139;-82
2023/10/18 13:30:39;;;;;;;14.70;8.65;;;10.90;99.90;;;;;;5088286;28;20524;-81
2023/10/18 13:33:11;;;;;;;13.43;9.27;;;11.00;99.90;;;;;;5104248;28;20048;-80
2023/10/18 13:35:40;;;;;;;12.88;9.40;;;10.90;99.90;;;;;;5067363;28;20044;-81
2023/10/18 13:38:06;;;;;;;16.20;9.27;;;10.80;99.90;;;;;;5092667;28;20066;-82
2023/10/18 13:40:37;;;;;;;15.32;9.23;;;10.90;99.90;;;;;;5100487;28;20117;-80
2023/10/18 13:43:09;;;;;;;12.35;9.43;;;10.80;99.90;;;;;;5097355;28;20040;-81